TimeEDT,TemperatureF,Dew PointF,Humidity,Sea Level PressureIn,VisibilityMPH,Wind Direction,Wind SpeedMPH,Gust SpeedMPH,PrecipitationIn,Events,Conditions,WindDirDegrees,DateUTC
12:32 AM,75.2,73.4,94,30.04,10.0,East,6.9,-,0.02,Rain,Light Rain,100,2013-07-02 04:32:00
12:53 AM,75.0,73.9,96,30.03,10.0,East,8.1,-,0.03,Rain,Light Rain,100,2013-07-02 04:53:00
1:53 AM,73.9,73.0,97,30.02,10.0,ESE,10.4,-,0.00,Rain,Light Rain,120,2013-07-02 05:53:00
2:53 AM,73.9,73.0,97,30.01,10.0,SE,4.6,-,0.00,,Overcast,130,2013-07-02 06:53:00
3:53 AM,73.9,73.0,97,30.00,10.0,SE,3.5,-,N/A,,Mostly Cloudy,140,2013-07-02 07:53:00
4:53 AM,73.9,73.0,97,30.01,10.0,Calm,Calm,-,0.00,,Overcast,0,2013-07-02 08:53:00
5:53 AM,73.9,73.0,97,30.01,10.0,ESE,4.6,-,N/A,,Mostly Cloudy,110,2013-07-02 09:53:00
6:53 AM,73.9,73.0,97,30.03,10.0,ESE,6.9,-,N/A,,Overcast,110,2013-07-02 10:53:00
7:53 AM,75.9,73.9,94,30.05,10.0,SSE,5.8,-,0.00,,Overcast,150,2013-07-02 11:53:00
8:53 AM,78.1,75.9,93,30.06,10.0,South,5.8,-,N/A,,Mostly Cloudy,180,2013-07-02 12:53:00
10:53 AM,82.0,73.9,76,30.07,10.0,South,5.8,-,N/A,,Overcast,190,2013-07-02 14:53:00
11:53 AM,80.1,75.0,85,30.08,7.0,SSE,13.8,19.6,0.00,Rain-Thunderstorm,Light Thunderstorms and Rain,150,2013-07-02 15:53:00
12:38 PM,77.0,71.6,83,30.10,10.0,Calm,Calm,-,0.02,Rain-Thunderstorm,Light Thunderstorms and Rain,0,2013-07-02 16:38:00
12:53 PM,77.0,73.0,88,30.09,10.0,South,5.8,-,0.02,Rain-Thunderstorm,Light Thunderstorms and Rain,180,2013-07-02 16:53:00
1:14 PM,78.8,73.4,83,30.10,10.0,WSW,8.1,-,0.01,,Overcast,240,2013-07-02 17:14:00
1:53 PM,73.0,72.0,96,30.12,6.0,SSE,12.7,-,0.11,Rain,Light Rain,150,2013-07-02 17:53:00
2:10 PM,73.4,71.6,94,30.12,6.0,ESE,8.1,-,0.03,Rain-Thunderstorm,Heavy Thunderstorms and Rain,120,2013-07-02 18:10:00
2:32 PM,73.4,73.4,100,30.12,9.0,ESE,11.5,-,0.06,Rain,Light Rain,110,2013-07-02 18:32:00
2:53 PM,75.0,73.0,94,30.11,10.0,ESE,10.4,-,0.07,Rain,Light Rain,120,2013-07-02 18:53:00
3:53 PM,77.0,73.9,90,30.07,10.0,ESE,8.1,-,0.02,Rain,Light Rain,120,2013-07-02 19:53:00
4:53 PM,79.0,72.0,79,30.06,10.0,SSE,9.2,-,N/A,,Mostly Cloudy,150,2013-07-02 20:53:00
5:53 PM,81.0,73.0,77,30.07,10.0,South,6.9,-,N/A,,Mostly Cloudy,170,2013-07-02 21:53:00
6:53 PM,79.0,72.0,79,30.09,10.0,South,5.8,-,N/A,,Overcast,170,2013-07-02 22:53:00
7:53 PM,77.0,73.0,88,30.11,10.0,SSE,5.8,-,0.00,Rain,Light Rain,160,2013-07-02 23:53:00
8:53 PM,75.9,73.0,91,30.12,8.0,Calm,Calm,-,0.00,,Overcast,0,2013-07-03 00:53:00
9:53 PM,75.0,73.0,94,30.12,10.0,East,3.5,-,N/A,,Mostly Cloudy,80,2013-07-03 01:53:00
10:53 PM,75.0,73.9,96,30.11,10.0,East,4.6,-,N/A,,Mostly Cloudy,80,2013-07-03 02:53:00
11:53 PM,75.0,73.9,96,30.11,10.0,East,8.1,-,N/A,,Mostly Cloudy,100,2013-07-03 03:53:00